sensor_id;sensor_type;location;lat;lon;timestamp;pressure;altitude;pressure_sealevel;temperature;humidity
56912;BME280;42800;53.928;27.662;2022-08-19T00:01:55;99149.50;;;20.99;100.00
56912;BME280;42800;53.928;27.662;2022-08-19T00:04:25;99156.13;;;20.88;100.00
56912;BME280;42800;53.928;27.662;2022-08-19T00:06:52;99188.09;;;20.84;100.00
56912;BME280;42800;53.928;27.662;2022-08-19T00:09:20;99200.59;;;20.76;100.00
56912;BME280;42800;53.928;27.662;2022-08-19T00:11:47;99228.97;;;20.71;100.00
56912;BME280;42800;53.928;27.662;2022-08-19T00:14:15;99259.22;;;20.52;100.00
56912;BME280;42800;53.928;27.662;2022-08-19T00:16:44;99281.94;;;20.51;100.00
56912;BME280;42800;53.928;27.662;2022-08-19T00:19:11;99294.16;;;20.57;100.00
56912;BME280;42800;53.928;27.662;2022-08-19T00:21:37;99305.53;;;20.42;100.00
56912;BME280;42800;53.928;27.662;2022-08-19T00:24:06;99340.16;;;20.41;100.00
56912;BME280;42800;53.928;27.662;2022-08-19T00:26:33;99345.47;;;20.12;100.00
56912;BME280;42800;53.928;27.662;2022-08-19T00:28:59;99384.13;;;20.30;100.00
56912;BME280;42800;53.928;27.662;2022-08-19T00:31:26;99396.91;;;20.28;100.00
56912;BME280;42800;53.928;27.662;2022-08-19T00:33:54;99397.63;;;20.32;100.00
56912;BME280;42800;53.928;27.662;2022-08-19T00:36:20;99391.69;;;20.30;100.00
56912;BME280;42800;53.928;27.662;2022-08-19T00:38:46;99399.25;;;20.29;100.00
56912;BME280;42800;53.928;27.662;2022-08-19T00:41:14;99424.28;;;20.29;100.00
56912;BME280;42800;53.928;27.662;2022-08-19T00:43:41;99425.66;;;20.21;100.00
56912;BME280;42800;53.928;27.662;2022-08-19T00:46:07;99447.25;;;20.13;100.00
56912;BME280;42800;53.928;27.662;2022-08-19T00:48:33;99459.63;;;20.09;100.00
56912;BME280;42800;53.928;27.662;2022-08-19T00:51:04;99498.00;;;19.97;100.00
56912;BME280;42800;53.928;27.662;2022-08-19T00:53:32;99507.06;;;20.02;100.00
56912;BME280;42800;53.928;27.662;2022-08-19T00:56:01;99512.34;;;19.92;100.00
56912;BME280;42800;53.928;27.662;2022-08-19T00:58:31;99527.88;;;19.93;100.00
56912;BME280;42800;53.928;27.662;2022-08-19T01:00:58;99530.44;;;19.81;100.00
56912;BME280;42800;53.928;27.662;2022-08-19T01:03:24;99550.50;;;19.65;100.00
56912;BME280;42800;53.928;27.662;2022-08-19T01:05:52;99557.63;;;19.69;100.00
56912;BME280;42800;53.928;27.662;2022-08-19T01:08:21;99571.53;;;19.66;100.00
56912;BME280;42800;53.928;27.662;2022-08-19T01:10:49;99577.22;;;19.55;100.00
56912;BME280;42800;53.928;27.662;2022-08-19T01:13:17;99583.50;;;19.59;100.00
56912;BME280;42800;53.928;27.662;2022-08-19T01:15:47;99597.53;;;19.48;100.00
56912;BME280;42800;53.928;27.662;2022-08-19T01:18:16;99599.09;;;19.53;100.00
56912;BME280;42800;53.928;27.662;2022-08-19T01:20:43;99597.50;;;19.52;100.00
56912;BME280;42800;53.928;27.662;2022-08-19T01:23:12;99609.41;;;19.52;100.00
56912;BME280;42800;53.928;27.662;2022-08-19T01:25:42;99603.78;;;19.60;100.00
56912;BME280;42800;53.928;27.662;2022-08-19T01:28:14;99599.06;;;19.57;100.00
56912;BME280;42800;53.928;27.662;2022-08-19T01:30:41;99603.84;;;19.52;100.00
56912;BME280;42800;53.928;27.662;2022-08-19T01:33:09;99608.31;;;19.46;100.00
56912;BME280;42800;53.928;27.662;2022-08-19T01:35:36;99624.53;;;19.51;100.00
56912;BME280;42800;53.928;27.662;2022-08-19T01:38:04;99621.44;;;19.42;100.00
56912;BME280;42800;53.928;27.662;2022-08-19T01:40:36;99632.25;;;19.37;100.00
56912;BME280;42800;53.928;27.662;2022-08-19T01:43:04;99638.97;;;19.36;100.00
56912;BME280;42800;53.928;27.662;2022-08-19T01:45:32;99650.56;;;19.31;100.00
56912;BME280;42800;53.928;27.662;2022-08-19T01:47:59;99658.53;;;19.28;100.00
56912;BME280;42800;53.928;27.662;2022-08-19T01:50:26;99662.50;;;19.27;100.00
56912;BME280;42800;53.928;27.662;2022-08-19T01:52:53;99662.97;;;19.19;100.00
56912;BME280;42800;53.928;27.662;2022-08-19T01:55:20;99660.13;;;19.30;100.00
56912;BME280;42800;53.928;27.662;2022-08-19T01:57:53;99660.69;;;19.10;100.00
56912;BME280;42800;53.928;27.662;2022-08-19T02:00:23;99655.78;;;19.25;100.00
56912;BME280;42800;53.928;27.662;2022-08-19T02:02:50;99657.63;;;19.39;100.00
56912;BME280;42800;53.928;27.662;2022-08-19T02:05:16;99664.47;;;19.31;100.00
56912;BME280;42800;53.928;27.662;2022-08-19T02:07:44;99661.59;;;19.38;100.00
56912;BME280;42800;53.928;27.662;2022-08-19T02:10:13;99672.72;;;19.38;100.00
56912;BME280;42800;53.928;27.662;2022-08-19T02:12:39;99679.47;;;19.40;100.00
56912;BME280;42800;53.928;27.662;2022-08-19T02:15:07;99666.78;;;19.39;100.00
56912;BME280;42800;53.928;27.662;2022-08-19T02:17:35;99668.75;;;19.39;100.00
56912;BME280;42800;53.928;27.662;2022-08-19T02:20:02;99671.25;;;19.30;100.00
56912;BME280;42800;53.928;27.662;2022-08-19T02:22:29;99668.41;;;19.33;100.00
56912;BME280;42800;53.928;27.662;2022-08-19T02:24:55;99676.44;;;19.24;100.00
56912;BME280;42800;53.928;27.662;2022-08-19T02:27:22;99665.88;;;19.04;100.00
56912;BME280;42800;53.928;27.662;2022-08-19T02:29:49;99662.31;;;19.04;100.00
56912;BME280;42800;53.928;27.662;2022-08-19T02:32:18;99658.03;;;18.92;100.00
56912;BME280;42800;53.928;27.662;2022-08-19T02:34:45;99655.53;;;19.09;100.00
56912;BME280;42800;53.928;27.662;2022-08-19T02:37:11;99656.06;;;18.93;100.00
56912;BME280;42800;53.928;27.662;2022-08-19T02:39:52;99647.69;;;19.00;100.00
56912;BME280;42800;53.928;27.662;2022-08-19T02:42:19;99641.97;;;19.14;100.00
56912;BME280;42800;53.928;27.662;2022-08-19T02:44:45;99651.47;;;19.20;100.00
56912;BME280;42800;53.928;27.662;2022-08-19T02:47:11;99661.53;;;19.03;100.00
56912;BME280;42800;53.928;27.662;2022-08-19T02:49:40;99654.38;;;19.06;100.00
56912;BME280;42800;53.928;27.662;2022-08-19T02:52:07;99655.88;;;19.14;100.00
56912;BME280;42800;53.928;27.662;2022-08-19T02:54:33;99654.34;;;19.10;100.00
56912;BME280;42800;53.928;27.662;2022-08-19T02:56:59;99653.53;;;19.09;100.00
56912;BME280;42800;53.928;27.662;2022-08-19T02:59:30;99659.66;;;18.93;100.00
56912;BME280;42800;53.928;27.662;2022-08-19T03:01:56;99661.06;;;19.12;100.00
56912;BME280;42800;53.928;27.662;2022-08-19T03:04:22;99658.75;;;19.03;100.00
56912;BME280;42800;53.928;27.662;2022-08-19T03:06:50;99663.06;;;19.08;100.00
56912;BME280;42800;53.928;27.662;2022-08-19T03:09:18;99678.22;;;19.03;100.00
56912;BME280;42800;53.928;27.662;2022-08-19T03:11:45;99673.78;;;19.10;100.00
56912;BME280;42800;53.928;27.662;2022-08-19T03:14:12;99689.63;;;19.16;100.00
56912;BME280;42800;53.928;27.662;2022-08-19T03:16:41;99694.25;;;19.30;100.00
56912;BME280;42800;53.928;27.662;2022-08-19T03:19:07;99698.69;;;19.24;100.00
56912;BME280;42800;53.928;27.662;2022-08-19T03:21:34;99704.66;;;19.19;100.00
56912;BME280;42800;53.928;27.662;2022-08-19T03:24:03;99701.59;;;19.51;100.00
56912;BME280;42800;53.928;27.662;2022-08-19T03:26:30;99714.03;;;19.39;100.00
56912;BME280;42800;53.928;27.662;2022-08-19T03:28:56;99709.09;;;19.58;100.00
56912;BME280;42800;53.928;27.662;2022-08-19T03:31:25;99721.34;;;19.67;100.00
56912;BME280;42800;53.928;27.662;2022-08-19T03:33:52;99704.03;;;19.87;100.00
56912;BME280;42800;53.928;27.662;2022-08-19T03:36:20;99695.25;;;20.22;100.00
56912;BME280;42800;53.928;27.662;2022-08-19T03:38:49;99610.06;;;20.83;100.00
56912;BME280;42800;53.928;27.662;2022-08-19T03:41:18;99476.72;;;21.01;100.00
56912;BME280;42800;53.928;27.662;2022-08-19T03:43:46;99371.00;;;21.30;100.00
56912;BME280;42800;53.928;27.662;2022-08-19T03:46:16;99216.84;;;21.63;100.00
56912;BME280;42800;53.928;27.662;2022-08-19T03:48:43;99066.13;;;21.92;100.00
56912;BME280;42800;53.928;27.662;2022-08-19T03:51:16;98930.03;;;22.08;100.00
56912;BME280;42800;53.928;27.662;2022-08-19T03:53:43;98866.19;;;21.98;100.00
56912;BME280;42800;53.928;27.662;2022-08-19T03:56:09;98872.00;;;22.16;100.00
56912;BME280;42800;53.928;27.662;2022-08-19T03:58:36;98692.22;;;22.67;100.00
56912;BME280;42800;53.928;27.662;2022-08-19T04:01:07;98591.44;;;23.01;100.00
56912;BME280;42800;53.928;27.662;2022-08-19T04:03:34;98485.19;;;23.29;100.00
56912;BME280;42800;53.928;27.662;2022-08-19T04:06:09;98535.47;;;22.92;100.00
56912;BME280;42800;53.928;27.662;2022-08-19T04:08:36;98479.28;;;23.27;100.00
56912;BME280;42800;53.928;27.662;2022-08-19T04:11:06;98451.66;;;23.20;100.00
56912;BME280;42800;53.928;27.662;2022-08-19T04:13:33;98421.34;;;23.28;100.00
56912;BME280;42800;53.928;27.662;2022-08-19T04:16:00;98357.19;;;23.33;100.00
56912;BME280;42800;53.928;27.662;2022-08-19T04:18:26;98319.75;;;23.64;100.00
56912;BME280;42800;53.928;27.662;2022-08-19T04:20:55;98318.03;;;24.00;100.00
56912;BME280;42800;53.928;27.662;2022-08-19T04:23:22;98338.38;;;24.00;100.00
56912;BME280;42800;53.928;27.662;2022-08-19T04:25:49;98298.16;;;24.12;100.00
56912;BME280;42800;53.928;27.662;2022-08-19T04:28:15;98293.44;;;24.18;100.00
56912;BME280;42800;53.928;27.662;2022-08-19T04:30:44;98286.69;;;24.10;100.00
56912;BME280;42800;53.928;27.662;2022-08-19T04:33:14;98287.19;;;24.62;100.00
56912;BME280;42800;53.928;27.662;2022-08-19T04:35:45;98286.44;;;24.77;100.00
56912;BME280;42800;53.928;27.662;2022-08-19T04:38:13;98292.31;;;25.08;100.00
56912;BME280;42800;53.928;27.662;2022-08-19T04:40:41;98286.41;;;24.92;100.00
56912;BME280;42800;53.928;27.662;2022-08-19T04:43:26;98281.22;;;24.31;100.00
56912;BME280;42800;53.928;27.662;2022-08-19T04:45:53;98273.94;;;24.48;100.00
56912;BME280;42800;53.928;27.662;2022-08-19T04:48:20;98298.81;;;25.00;100.00
56912;BME280;42800;53.928;27.662;2022-08-19T04:50:51;98326.09;;;25.14;100.00
56912;BME280;42800;53.928;27.662;2022-08-19T04:53:23;98305.25;;;25.50;100.00
56912;BME280;42800;53.928;27.662;2022-08-19T04:55:49;98358.06;;;26.02;100.00
56912;BME280;42800;53.928;27.662;2022-08-19T04:58:16;98362.78;;;26.31;100.00
56912;BME280;42800;53.928;27.662;2022-08-19T05:00:43;98377.97;;;26.39;100.00
56912;BME280;42800;53.928;27.662;2022-08-19T05:03:09;98357.28;;;25.66;100.00
56912;BME280;42800;53.928;27.662;2022-08-19T05:05:39;98325.66;;;25.51;100.00
56912;BME280;42800;53.928;27.662;2022-08-19T05:08:06;98316.34;;;25.59;100.00
56912;BME280;42800;53.928;27.662;2022-08-19T05:10:34;98339.94;;;25.83;100.00
56912;BME280;42800;53.928;27.662;2022-08-19T05:13:01;98349.06;;;26.39;100.00
56912;BME280;42800;53.928;27.662;2022-08-19T05:15:27;98394.41;;;26.67;100.00
56912;BME280;42800;53.928;27.662;2022-08-19T05:17:54;98411.84;;;27.17;100.00
56912;BME280;42800;53.928;27.662;2022-08-19T05:20:39;98404.53;;;26.79;100.00
56912;BME280;42800;53.928;27.662;2022-08-19T05:23:23;98392.56;;;26.02;100.00
56912;BME280;42800;53.928;27.662;2022-08-19T05:25:49;98419.31;;;26.39;100.00
56912;BME280;42800;53.928;27.662;2022-08-19T05:28:16;98450.66;;;27.65;100.00
56912;BME280;42800;53.928;27.662;2022-08-19T05:30:42;98605.28;;;27.63;100.00
56912;BME280;42800;53.928;27.662;2022-08-19T05:33:10;98619.31;;;28.36;100.00
56912;BME280;42800;53.928;27.662;2022-08-19T05:35:37;98589.94;;;28.17;100.00
56912;BME280;42800;53.928;27.662;2022-08-19T05:38:04;98589.03;;;28.63;100.00
56912;BME280;42800;53.928;27.662;2022-08-19T05:40:30;98572.97;;;28.11;100.00
56912;BME280;42800;53.928;27.662;2022-08-19T05:42:57;98623.72;;;28.74;100.00
56912;BME280;42800;53.928;27.662;2022-08-19T05:45:23;98639.63;;;29.09;100.00
56912;BME280;42800;53.928;27.662;2022-08-19T05:47:50;98639.16;;;29.22;100.00
56912;BME280;42800;53.928;27.662;2022-08-19T05:50:16;98642.50;;;28.83;100.00
56912;BME280;42800;53.928;27.662;2022-08-19T05:52:43;98636.19;;;28.62;100.00
56912;BME280;42800;53.928;27.662;2022-08-19T05:55:10;98627.19;;;28.32;100.00
56912;BME280;42800;53.928;27.662;2022-08-19T05:57:36;98582.06;;;28.26;100.00
56912;BME280;42800;53.928;27.662;2022-08-19T06:00:04;98610.38;;;27.85;100.00
56912;BME280;42800;53.928;27.662;2022-08-19T06:02:34;98626.06;;;28.44;100.00
56912;BME280;42800;53.928;27.662;2022-08-19T06:05:01;98588.34;;;27.84;100.00
56912;BME280;42800;53.928;27.662;2022-08-19T06:07:27;98588.97;;;27.47;100.00
56912;BME280;42800;53.928;27.662;2022-08-19T06:09:54;98597.56;;;28.10;100.00
56912;BME280;42800;53.928;27.662;2022-08-19T06:12:21;98639.41;;;28.81;100.00
56912;BME280;42800;53.928;27.662;2022-08-19T06:14:51;98622.28;;;28.90;100.00
56912;BME280;42800;53.928;27.662;2022-08-19T06:17:19;98621.41;;;29.10;100.00
56912;BME280;42800;53.928;27.662;2022-08-19T06:19:46;98664.25;;;29.14;100.00
56912;BME280;42800;53.928;27.662;2022-08-19T06:22:12;98638.22;;;28.56;100.00
56912;BME280;42800;53.928;27.662;2022-08-19T06:24:38;98671.53;;;29.26;100.00
56912;BME280;42800;53.928;27.662;2022-08-19T06:27:05;98709.38;;;30.17;100.00
56912;BME280;42800;53.928;27.662;2022-08-19T06:29:32;98665.25;;;28.74;100.00
56912;BME280;42800;53.928;27.662;2022-08-19T06:32:00;98676.78;;;30.27;100.00
56912;BME280;42800;53.928;27.662;2022-08-19T06:34:28;98729.56;;;29.76;100.00
56912;BME280;42800;53.928;27.662;2022-08-19T06:36:55;98760.44;;;31.01;100.00
56912;BME280;42800;53.928;27.662;2022-08-19T06:39:24;98770.97;;;30.78;100.00
56912;BME280;42800;53.928;27.662;2022-08-19T06:41:52;98763.00;;;31.10;100.00
56912;BME280;42800;53.928;27.662;2022-08-19T06:44:19;98786.63;;;31.58;100.00
56912;BME280;42800;53.928;27.662;2022-08-19T06:46:47;98807.50;;;30.76;100.00
56912;BME280;42800;53.928;27.662;2022-08-19T06:49:14;98795.84;;;30.46;100.00
56912;BME280;42800;53.928;27.662;2022-08-19T06:51:41;98773.06;;;29.52;100.00
56912;BME280;42800;53.928;27.662;2022-08-19T06:54:08;98793.13;;;31.19;100.00
56912;BME280;42800;53.928;27.662;2022-08-19T06:56:35;98753.97;;;30.56;100.00
56912;BME280;42800;53.928;27.662;2022-08-19T06:59:03;98789.22;;;30.66;100.00
56912;BME280;42800;53.928;27.662;2022-08-19T07:01:29;98805.88;;;30.47;100.00
56912;BME280;42800;53.928;27.662;2022-08-19T07:03:59;98822.41;;;31.78;100.00
56912;BME280;42800;53.928;27.662;2022-08-19T07:06:27;98827.44;;;30.39;100.00
56912;BME280;42800;53.928;27.662;2022-08-19T07:08:53;98825.69;;;29.50;100.00
56912;BME280;42800;53.928;27.662;2022-08-19T07:11:19;98796.50;;;29.64;100.00
56912;BME280;42800;53.928;27.662;2022-08-19T07:13:47;98823.22;;;31.16;100.00
56912;BME280;42800;53.928;27.662;2022-08-19T07:16:16;98855.56;;;30.05;100.00
56912;BME280;42800;53.928;27.662;2022-08-19T07:18:42;98809.97;;;29.12;100.00
56912;BME280;42800;53.928;27.662;2022-08-19T07:21:12;98829.34;;;30.70;100.00
56912;BME280;42800;53.928;27.662;2022-08-19T07:23:38;98868.28;;;31.20;100.00
56912;BME280;42800;53.928;27.662;2022-08-19T07:26:06;98857.97;;;31.73;100.00
56912;BME280;42800;53.928;27.662;2022-08-19T07:28:32;98844.91;;;32.28;100.00
56912;BME280;42800;53.928;27.662;2022-08-19T07:31:00;98869.38;;;32.37;100.00
56912;BME280;42800;53.928;27.662;2022-08-19T07:33:31;98855.88;;;30.95;100.00
56912;BME280;42800;53.928;27.662;2022-08-19T07:35:58;98869.84;;;31.38;100.00
56912;BME280;42800;53.928;27.662;2022-08-19T07:38:28;98869.69;;;30.65;100.00
56912;BME280;42800;53.928;27.662;2022-08-19T07:40:54;98910.47;;;31.18;100.00
56912;BME280;42800;53.928;27.662;2022-08-19T07:43:20;98911.56;;;31.60;100.00
56912;BME280;42800;53.928;27.662;2022-08-19T07:45:51;98917.91;;;30.99;100.00
56912;BME280;42800;53.928;27.662;2022-08-19T07:48:17;98927.13;;;30.77;100.00
56912;BME280;42800;53.928;27.662;2022-08-19T07:50:45;98898.50;;;30.15;100.00
56912;BME280;42800;53.928;27.662;2022-08-19T07:53:11;98933.13;;;31.12;100.00
56912;BME280;42800;53.928;27.662;2022-08-19T07:55:38;98934.22;;;30.55;100.00
56912;BME280;42800;53.928;27.662;2022-08-19T07:58:05;98937.28;;;32.07;100.00
56912;BME280;42800;53.928;27.662;2022-08-19T08:00:31;98916.66;;;31.11;100.00
56912;BME280;42800;53.928;27.662;2022-08-19T08:02:57;98918.72;;;31.16;100.00
56912;BME280;42800;53.928;27.662;2022-08-19T08:05:24;98912.03;;;32.09;100.00
56912;BME280;42800;53.928;27.662;2022-08-19T08:08:08;98916.19;;;31.97;100.00
56912;BME280;42800;53.928;27.662;2022-08-19T08:10:53;98907.81;;;32.44;100.00
56912;BME280;42800;53.928;27.662;2022-08-19T08:13:19;98920.81;;;32.80;100.00
56912;BME280;42800;53.928;27.662;2022-08-19T08:15:46;98914.81;;;32.90;100.00
56912;BME280;42800;53.928;27.662;2022-08-19T08:18:12;98909.06;;;32.48;100.00
56912;BME280;42800;53.928;27.662;2022-08-19T08:20:38;98897.09;;;31.92;100.00
56912;BME280;42800;53.928;27.662;2022-08-19T08:23:05;98909.88;;;32.43;100.00
56912;BME280;42800;53.928;27.662;2022-08-19T08:25:51;98894.59;;;33.10;100.00
56912;BME280;42800;53.928;27.662;2022-08-19T08:28:19;98901.41;;;32.26;100.00
56912;BME280;42800;53.928;27.662;2022-08-19T08:30:46;98925.72;;;33.21;100.00
56912;BME280;42800;53.928;27.662;2022-08-19T08:33:14;98922.59;;;32.84;100.00
56912;BME280;42800;53.928;27.662;2022-08-19T08:35:42;98932.84;;;32.98;100.00
56912;BME280;42800;53.928;27.662;2022-08-19T08:38:11;98945.50;;;32.91;100.00
56912;BME280;42800;53.928;27.662;2022-08-19T08:40:47;98926.75;;;32.83;100.00
56912;BME280;42800;53.928;27.662;2022-08-19T08:43:23;98929.56;;;33.30;100.00
56912;BME280;42800;53.928;27.662;2022-08-19T08:45:55;98971.56;;;32.26;100.00
56912;BME280;42800;53.928;27.662;2022-08-19T08:48:34;98949.38;;;32.19;100.00
56912;BME280;42800;53.928;27.662;2022-08-19T08:51:06;98959.72;;;32.97;100.00
56912;BME280;42800;53.928;27.662;2022-08-19T08:53:34;98954.81;;;32.97;100.00
56912;BME280;42800;53.928;27.662;2022-08-19T08:56:04;98943.78;;;32.83;100.00
56912;BME280;42800;53.928;27.662;2022-08-19T08:58:42;98926.69;;;32.24;100.00
56912;BME280;42800;53.928;27.662;2022-08-19T09:01:11;98945.97;;;33.07;100.00
56912;BME280;42800;53.928;27.662;2022-08-19T09:03:41;98959.97;;;31.84;100.00
56912;BME280;42800;53.928;27.662;2022-08-19T09:06:14;98931.34;;;31.09;100.00
56912;BME280;42800;53.928;27.662;2022-08-19T09:08:47;98900.06;;;30.70;100.00
56912;BME280;42800;53.928;27.662;2022-08-19T09:11:19;98881.28;;;30.67;100.00
56912;BME280;42800;53.928;27.662;2022-08-19T09:14:00;98878.53;;;30.89;100.00
56912;BME280;42800;53.928;27.662;2022-08-19T09:16:28;98874.69;;;30.98;100.00
56912;BME280;42800;53.928;27.662;2022-08-19T09:18:58;98869.16;;;30.61;100.00
56912;BME280;42800;53.928;27.662;2022-08-19T09:21:26;98859.00;;;31.03;100.00
56912;BME280;42800;53.928;27.662;2022-08-19T09:23:53;98865.94;;;31.02;100.00
56912;BME280;42800;53.928;27.662;2022-08-19T09:26:22;98850.38;;;30.58;100.00
56912;BME280;42800;53.928;27.662;2022-08-19T09:28:51;98851.16;;;30.58;100.00
56912;BME280;42800;53.928;27.662;2022-08-19T09:31:21;98884.22;;;31.12;100.00
56912;BME280;42800;53.928;27.662;2022-08-19T09:33:48;98868.31;;;31.43;100.00
56912;BME280;42800;53.928;27.662;2022-08-19T09:36:16;98849.44;;;31.84;100.00
56912;BME280;42800;53.928;27.662;2022-08-19T09:38:44;98851.69;;;32.08;100.00
56912;BME280;42800;53.928;27.662;2022-08-19T09:41:12;98863.13;;;31.63;100.00
56912;BME280;42800;53.928;27.662;2022-08-19T09:43:39;98845.38;;;31.29;100.00
56912;BME280;42800;53.928;27.662;2022-08-19T09:46:07;98831.19;;;30.90;100.00
56912;BME280;42800;53.928;27.662;2022-08-19T09:48:35;98832.50;;;31.17;100.00
56912;BME280;42800;53.928;27.662;2022-08-19T09:51:03;98815.75;;;30.85;100.00
56912;BME280;42800;53.928;27.662;2022-08-19T09:53:30;98813.47;;;31.06;100.00
56912;BME280;42800;53.928;27.662;2022-08-19T09:55:56;98837.34;;;31.78;100.00
56912;BME280;42800;53.928;27.662;2022-08-19T09:58:22;98836.34;;;31.64;100.00
56912;BME280;42800;53.928;27.662;2022-08-19T10:00:53;98826.28;;;31.69;100.00
56912;BME280;42800;53.928;27.662;2022-08-19T10:03:20;98820.66;;;31.24;100.00
56912;BME280;42800;53.928;27.662;2022-08-19T10:05:46;98818.78;;;31.77;100.00
56912;BME280;42800;53.928;27.662;2022-08-19T10:08:17;98794.31;;;31.69;100.00
56912;BME280;42800;53.928;27.662;2022-08-19T10:10:44;98790.28;;;31.13;100.00
56912;BME280;42800;53.928;27.662;2022-08-19T10:13:12;98825.00;;;31.70;100.00
56912;BME280;42800;53.928;27.662;2022-08-19T10:15:39;98782.03;;;31.49;100.00
56912;BME280;42800;53.928;27.662;2022-08-19T10:18:06;98773.03;;;31.34;100.00
56912;BME280;42800;53.928;27.662;2022-08-19T10:20:33;98798.50;;;31.45;100.00
56912;BME280;42800;53.928;27.662;2022-08-19T10:23:00;98799.03;;;30.93;100.00
56912;BME280;42800;53.928;27.662;2022-08-19T10:25:27;98805.84;;;30.36;100.00
56912;BME280;42800;53.928;27.662;2022-08-19T10:27:53;98788.44;;;30.60;100.00
56912;BME280;42800;53.928;27.662;2022-08-19T10:30:20;98756.31;;;29.92;100.00
56912;BME280;42800;53.928;27.662;2022-08-19T10:32:46;98724.72;;;29.88;100.00
56912;BME280;42800;53.928;27.662;2022-08-19T10:35:13;98719.34;;;29.41;100.00
56912;BME280;42800;53.928;27.662;2022-08-19T10:37:41;98746.22;;;29.74;100.00
56912;BME280;42800;53.928;27.662;2022-08-19T10:40:08;98709.03;;;29.33;100.00
56912;BME280;42800;53.928;27.662;2022-08-19T10:42:37;98702.22;;;28.81;100.00
56912;BME280;42800;53.928;27.662;2022-08-19T10:45:05;98713.72;;;29.04;100.00
56912;BME280;42800;53.928;27.662;2022-08-19T10:47:32;98697.22;;;29.34;100.00
56912;BME280;42800;53.928;27.662;2022-08-19T10:49:58;98702.88;;;29.34;100.00
56912;BME280;42800;53.928;27.662;2022-08-19T10:52:45;98696.69;;;28.93;100.00
56912;BME280;42800;53.928;27.662;2022-08-19T10:55:12;98680.28;;;29.34;100.00
56912;BME280;42800;53.928;27.662;2022-08-19T10:57:56;98671.28;;;29.84;100.00
56912;BME280;42800;53.928;27.662;2022-08-19T11:00:24;98730.59;;;29.84;100.00
56912;BME280;42800;53.928;27.662;2022-08-19T11:02:51;98728.56;;;29.85;100.00
56912;BME280;42800;53.928;27.662;2022-08-19T11:05:18;98741.69;;;29.93;100.00
56912;BME280;42800;53.928;27.662;2022-08-19T11:07:45;98749.34;;;29.76;100.00
56912;BME280;42800;53.928;27.662;2022-08-19T11:10:13;98715.41;;;29.27;100.00
56912;BME280;42800;53.928;27.662;2022-08-19T11:12:40;98697.94;;;29.23;100.00
56912;BME280;42800;53.928;27.662;2022-08-19T11:15:09;98717.09;;;28.76;100.00
56912;BME280;42800;53.928;27.662;2022-08-19T11:17:37;98691.47;;;28.80;100.00
56912;BME280;42800;53.928;27.662;2022-08-19T11:20:07;98728.44;;;28.56;100.00
56912;BME280;42800;53.928;27.662;2022-08-19T11:22:34;98691.66;;;28.45;100.00
56912;BME280;42800;53.928;27.662;2022-08-19T11:25:01;98708.13;;;28.26;100.00
56912;BME280;42800;53.928;27.662;2022-08-19T11:27:27;98703.88;;;28.36;100.00
56912;BME280;42800;53.928;27.662;2022-08-19T11:29:56;98713.50;;;28.24;100.00
56912;BME280;42800;53.928;27.662;2022-08-19T11:32:22;98707.72;;;28.38;100.00
56912;BME280;42800;53.928;27.662;2022-08-19T11:34:48;98691.00;;;28.29;100.00
56912;BME280;42800;53.928;27.662;2022-08-19T11:37:15;98670.22;;;28.27;100.00
56912;BME280;42800;53.928;27.662;2022-08-19T11:39:41;98671.97;;;28.24;100.00
56912;BME280;42800;53.928;27.662;2022-08-19T11:42:08;98722.19;;;28.46;100.00
56912;BME280;42800;53.928;27.662;2022-08-19T11:44:49;98732.06;;;28.36;100.00
56912;BME280;42800;53.928;27.662;2022-08-19T11:47:15;98721.81;;;28.38;100.00
56912;BME280;42800;53.928;27.662;2022-08-19T11:49:41;98714.59;;;28.32;100.00
56912;BME280;42800;53.928;27.662;2022-08-19T11:52:08;98692.72;;;28.21;100.00
56912;BME280;42800;53.928;27.662;2022-08-19T11:54:34;98692.66;;;28.42;100.00
56912;BME280;42800;53.928;27.662;2022-08-19T11:57:02;98661.44;;;28.19;100.00
56912;BME280;42800;53.928;27.662;2022-08-19T11:59:30;98652.56;;;28.32;100.00
56912;BME280;42800;53.928;27.662;2022-08-19T12:01:56;98666.34;;;27.98;100.00
56912;BME280;42800;53.928;27.662;2022-08-19T12:04:23;98649.50;;;28.04;100.00
56912;BME280;42800;53.928;27.662;2022-08-19T12:06:49;98664.34;;;28.04;100.00
56912;BME280;42800;53.928;27.662;2022-08-19T12:09:16;98632.59;;;28.04;100.00
56912;BME280;42800;53.928;27.662;2022-08-19T12:11:43;98602.06;;;27.97;100.00
56912;BME280;42800;53.928;27.662;2022-08-19T12:14:11;98578.28;;;28.03;100.00
56912;BME280;42800;53.928;27.662;2022-08-19T12:16:40;98586.09;;;27.88;100.00
56912;BME280;42800;53.928;27.662;2022-08-19T12:19:07;98601.06;;;28.31;100.00
56912;BME280;42800;53.928;27.662;2022-08-19T12:21:34;98618.59;;;28.15;100.00
56912;BME280;42800;53.928;27.662;2022-08-19T12:24:03;98580.75;;;28.22;100.00
56912;BME280;42800;53.928;27.662;2022-08-19T12:26:30;98629.56;;;28.07;100.00
56912;BME280;42800;53.928;27.662;2022-08-19T12:28:57;98601.47;;;28.19;100.00
56912;BME280;42800;53.928;27.662;2022-08-19T12:31:25;98602.47;;;28.15;100.00
56912;BME280;42800;53.928;27.662;2022-08-19T12:33:52;98595.34;;;28.46;100.00
56912;BME280;42800;53.928;27.662;2022-08-19T12:36:18;98565.25;;;28.06;100.00
56912;BME280;42800;53.928;27.662;2022-08-19T12:38:44;98545.88;;;27.87;100.00
56912;BME280;42800;53.928;27.662;2022-08-19T12:41:14;98545.63;;;27.65;100.00
56912;BME280;42800;53.928;27.662;2022-08-19T12:43:43;98549.16;;;27.80;100.00
56912;BME280;42800;53.928;27.662;2022-08-19T12:46:10;98536.13;;;27.83;100.00